Time;durP1;ratioP1;P1;durP2;ratioP2;P2;SDS_P1;SDS_P2;PMS_P1;PMS_P2;Temp;Humidity;BMP_temperature;BMP_pressure;BME280_temperature;BME280_humidity;BME280_pressure;Samples;Min_cycle;Max_cycle;Signal;HPM_P1;HPM_P2
2021/12/24 00:01:09;;;;;;;26.43;13.73;;;;;;;-3.13;77.07;97518.53;5047148;28;20603;-71
2021/12/24 00:04:30;;;;;;;24.87;13.03;;;;;;;-3.20;77.50;97511.66;5047025;28;20702;-71
2021/12/24 00:07:51;;;;;;;30.03;15.40;;;;;;;-3.24;78.02;97503.19;5046949;28;20595;-68
2021/12/24 00:11:11;;;;;;;26.30;14.23;;;;;;;-3.34;78.27;97501.34;5061232;28;20195;-67
2021/12/24 00:14:32;;;;;;;29.43;14.57;;;;;;;-3.35;78.19;97499.63;5046595;28;20188;-71
2021/12/24 00:18:01;;;;;;;28.17;15.30;;;;;;;-3.26;78.09;97498.94;5046972;28;20202;-72
2021/12/24 00:35:57;;;;;;;24.10;14.03;;;;;;;-3.41;79.27;97502.06;5046444;28;20217;-65
2021/12/24 00:39:18;;;;;;;31.00;15.00;;;;;;;-3.46;79.42;97491.00;5046596;28;20256;-72
2021/12/24 00:42:43;;;;;;;24.60;13.97;;;;;;;-3.48;79.76;97493.53;5061029;28;20263;-70
2021/12/24 00:46:04;;;;;;;27.07;14.03;;;;;;;-3.46;79.90;97476.69;5046095;28;20229;-71
2021/12/24 11:41:27;;;;;;;27.70;14.73;;;;;;;4.85;52.75;96838.41;6206290;22;1411711;-69
2021/12/24 11:43:56;;;;;;;26.40;14.83;;;;;;;4.85;52.99;96840.97;6207516;22;20191;-67
2021/12/24 11:46:25;;;;;;;24.47;14.23;;;;;;;4.95;52.98;96848.38;6234467;22;20258;-76
2021/12/24 11:48:54;;;;;;;21.10;12.70;;;;;;;4.91;51.97;96841.66;6268393;22;20204;-75
2021/12/24 11:51:25;;;;;;;24.87;13.87;;;;;;;4.84;52.49;96842.69;6268442;22;20202;-77
2021/12/24 11:53:57;;;;;;;18.90;12.83;;;;;;;4.87;53.68;96839.19;6268494;22;20162;-64
2021/12/24 11:56:25;;;;;;;20.00;12.73;;;;;;;4.94;54.08;96833.88;6268578;22;20165;-65
2021/12/24 11:58:56;;;;;;;23.50;13.30;;;;;;;4.93;53.18;96821.06;6268347;22;20162;-67
2021/12/24 12:01:27;;;;;;;24.70;13.77;;;;;;;5.12;52.71;96827.38;6268810;22;20162;-66
2021/12/24 12:03:57;;;;;;;17.27;11.97;;;;;;;5.16;54.13;96821.28;6268059;22;20248;-66
2021/12/24 12:06:24;;;;;;;20.43;13.43;;;;;;;5.33;55.38;96813.09;6216112;22;20181;-68
2021/12/24 12:08:54;;;;;;;26.40;15.50;;;;;;;5.32;53.24;96806.28;6268081;22;20640;-71
2021/12/24 12:11:30;;;;;;;26.03;15.17;;;;;;;5.40;54.04;96809.50;6268546;22;20521;-64
2021/12/24 12:14:23;;;;;;;24.07;14.73;;;;;;;5.42;54.21;96794.88;6241298;22;20170;-68
2021/12/24 12:16:54;;;;;;;30.30;18.70;;;;;;;5.42;52.77;96802.56;6241321;22;20225;-70
2021/12/24 12:25:13;;;;;;;28.47;13.23;;;;;;;5.49;52.28;96809.19;6268173;22;20194;-67
2021/12/24 12:27:54;;;;;;;25.53;14.17;;;;;;;5.54;53.72;96808.16;6268068;22;20184;-70
2021/12/24 12:30:23;;;;;;;19.67;13.27;;;;;;;5.55;53.78;96809.00;6268653;22;20304;-68
2021/12/24 12:33:12;;;;;;;23.80;14.07;;;;;;;5.56;53.58;96806.38;6268524;22;20626;-69
2021/12/24 12:35:43;;;;;;;19.93;10.80;;;;;;;5.59;53.79;96800.31;6267772;22;20179;-67
2021/12/24 12:38:25;;;;;;;24.23;13.10;;;;;;;5.63;53.93;96791.63;6240636;22;20170;-70
2021/12/24 12:40:53;;;;;;;21.93;12.10;;;;;;;5.61;54.54;96791.69;6268493;22;20231;-71
2021/12/24 12:43:24;;;;;;;17.40;11.00;;;;;;;5.61;54.40;96783.13;6267937;22;20166;-68
2021/12/24 12:45:56;;;;;;;15.53;9.63;;;;;;;5.78;54.38;96797.16;6241416;22;20185;-68
2021/12/24 12:48:29;;;;;;;13.13;8.40;;;;;;;5.75;54.36;96792.13;6267971;22;20273;-67
2021/12/24 12:51:00;;;;;;;16.03;9.47;;;;;;;5.82;54.38;96776.50;6240594;22;20194;-69
2021/12/24 12:53:30;;;;;;;15.93;9.07;;;;;;;5.94;54.62;96779.56;6241274;22;20935;-67
2021/12/24 12:56:30;;;;;;;29.73;12.80;;;;;;;5.94;55.30;96783.84;6267648;22;20633;-68
2021/12/24 12:59:07;;;;;;;21.07;10.87;;;;;;;6.03;54.44;96788.72;6267829;22;20180;-71
2021/12/24 13:01:50;;;;;;;19.13;11.63;;;;;;;6.01;55.13;96795.63;6267949;22;20720;-67
2021/12/24 13:04:20;;;;;;;18.53;10.80;;;;;;;5.98;55.27;96796.56;6267135;22;20173;-70
2021/12/24 13:06:51;;;;;;;23.73;10.83;;;;;;;5.95;55.57;96795.81;6267370;22;20164;-70
2021/12/24 13:09:22;;;;;;;18.27;10.67;;;;;;;5.87;55.28;96795.22;6267709;22;20538;-70
2021/12/24 13:11:55;;;;;;;16.77;10.10;;;;;;;5.65;54.46;96785.56;6240751;22;20162;-67
2021/12/24 13:14:26;;;;;;;18.53;11.47;;;;;;;5.65;54.21;96795.00;6267959;22;20191;-67
2021/12/24 13:17:32;;;;;;;16.57;10.87;;;;;;;5.48;55.29;96802.41;6268417;22;20204;-66
2021/12/24 13:20:08;;;;;;;18.93;11.67;;;;;;;5.41;55.25;96790.63;6261876;22;20279;-68
2021/12/24 13:22:37;;;;;;;21.53;12.60;;;;;;;5.38;55.75;96785.59;6268520;22;20178;-69
2021/12/24 13:25:13;;;;;;;22.17;11.97;;;;;;;5.31;55.18;96789.19;6268457;22;20566;-68
2021/12/24 13:27:47;;;;;;;21.77;12.43;;;;;;;5.23;55.60;96771.47;6241662;22;20197;-67
2021/12/24 13:30:15;;;;;;;26.00;12.63;;;;;;;5.35;56.11;96783.94;6215986;22;20202;-67
2021/12/24 13:32:47;;;;;;;18.33;9.40;;;;;;;5.42;54.32;96785.41;6268177;22;20178;-67
2021/12/24 13:35:17;;;;;;;16.00;9.73;;;;;;;5.41;54.47;96788.03;6267839;22;20166;-67
2021/12/24 13:37:46;;;;;;;15.93;9.40;;;;;;;5.45;54.87;96777.66;6268103;22;20193;-68
2021/12/24 13:40:17;;;;;;;17.13;8.77;;;;;;;5.44;53.92;96780.25;6241341;22;20171;-69
2021/12/24 13:42:46;;;;;;;17.90;10.23;;;;;;;5.32;54.92;96765.19;6268132;22;20281;-68
2021/12/24 13:45:14;;;;;;;16.03;9.87;;;;;;;5.36;54.67;96777.06;6268152;22;20170;-69
2021/12/24 13:48:02;;;;;;;19.27;10.00;;;;;;;5.41;53.81;96772.63;6240646;22;20171;-68
2021/12/24 13:56:44;;;;;;;22.40;12.83;;;;;;;5.38;54.46;96785.59;6269762;22;20221;-66
2021/12/24 13:59:14;;;;;;;16.40;11.77;;;;;;;5.25;54.76;96779.97;6269806;22;20600;-68
2021/12/24 14:01:42;;;;;;;20.73;12.53;;;;;;;5.31;54.82;96790.06;6269538;22;20167;-70
2021/12/24 14:04:11;;;;;;;21.07;12.93;;;;;;;5.36;54.66;96795.03;6243056;22;20164;-68
2021/12/24 14:06:44;;;;;;;18.23;10.93;;;;;;;5.23;55.41;96798.84;6242523;22;20245;-69
2021/12/24 14:09:30;;;;;;;22.20;14.00;;;;;;;5.19;55.34;96797.25;6242713;22;20210;-67
2021/12/24 14:11:59;;;;;;;31.90;17.10;;;;;;;5.08;55.12;96795.00;6269869;22;20273;-67
2021/12/24 14:14:42;;;;;;;32.17;18.90;;;;;;;5.09;56.04;96795.84;6269393;22;20249;-66
2021/12/24 14:17:48;;;;;;;28.60;17.43;;;;;;;4.97;56.59;96790.16;6242326;22;20216;-67
2021/12/24 14:20:25;;;;;;;29.07;18.07;;;;;;;4.88;56.45;96779.31;6268912;22;20223;-67
2021/12/24 14:22:52;;;;;;;30.43;18.93;;;;;;;5.00;60.69;96778.97;6242632;22;20219;-67
2021/12/24 14:25:19;;;;;;;40.07;22.23;;;;;;;4.89;57.01;96765.59;6269582;22;20740;-66
2021/12/24 14:27:49;;;;;;;35.17;21.47;;;;;;;4.93;57.11;96788.56;6269400;22;20231;-66
2021/12/24 14:30:20;;;;;;;46.70;27.57;;;;;;;4.91;57.14;96795.47;6269487;22;20194;-67
2021/12/24 14:32:49;;;;;;;79.00;38.73;;;;;;;4.97;56.71;96803.00;6269322;22;20261;-67
2021/12/24 14:35:20;;;;;;;75.30;36.30;;;;;;;4.94;56.01;96810.78;6269759;22;20189;-67
2021/12/24 14:37:58;;;;;;;47.30;26.70;;;;;;;4.74;57.01;96801.94;6242327;22;20185;-68
2021/12/24 14:40:28;;;;;;;58.97;31.33;;;;;;;4.64;57.19;96813.31;6269616;22;20239;-69
2021/12/24 14:42:55;;;;;;;46.50;24.90;;;;;;;4.56;56.90;96804.97;6269941;22;20295;-68
2021/12/24 14:45:25;;;;;;;34.30;20.30;;;;;;;4.38;57.27;96808.00;6242080;22;20177;-68
2021/12/24 14:48:07;;;;;;;44.83;26.50;;;;;;;4.37;57.66;96807.16;6242199;22;20158;-68
2021/12/24 14:50:48;;;;;;;50.97;28.17;;;;;;;4.30;57.81;96807.38;6269341;22;20193;-68
2021/12/24 14:53:36;;;;;;;42.00;23.10;;;;;;;4.36;57.08;96809.78;6269917;22;20163;-67
2021/12/24 14:56:08;;;;;;;46.73;26.73;;;;;;;4.40;57.12;96808.81;6268924;22;20200;-68
2021/12/24 14:59:03;;;;;;;60.00;34.97;;;;;;;4.46;57.02;96806.94;6269499;22;20477;-67
2021/12/24 15:01:39;;;;;;;63.67;31.37;;;;;;;4.42;56.78;96805.34;6269596;22;20859;-70
2021/12/24 15:04:12;;;;;;;43.17;25.53;;;;;;;4.40;56.85;96801.97;6242446;22;20169;-67
2021/12/24 15:06:48;;;;;;;48.23;26.50;;;;;;;4.41;56.89;96795.94;6268698;22;20252;-67
2021/12/24 15:09:19;;;;;;;44.23;23.67;;;;;;;4.32;56.72;96801.34;6269426;22;20192;-68
2021/12/24 15:11:47;;;;;;;26.07;14.77;;;;;;;4.30;56.90;96808.22;6269545;22;20165;-69
2021/12/24 15:14:16;;;;;;;33.33;18.13;;;;;;;4.10;57.72;96818.13;6269523;22;20186;-68
2021/12/24 15:16:48;;;;;;;37.43;18.70;;;;;;;4.04;59.75;96818.25;6242496;22;20189;-66
2021/12/24 15:19:17;;;;;;;32.23;18.63;;;;;;;4.01;58.60;96813.22;6269032;22;20161;-67
2021/12/24 15:21:46;;;;;;;34.03;19.73;;;;;;;3.97;58.40;96811.59;6268803;22;20569;-66
2021/12/24 15:24:18;;;;;;;38.50;21.37;;;;;;;3.88;59.05;96809.25;6269022;22;20609;-67
2021/12/24 15:26:46;;;;;;;44.37;24.37;;;;;;;3.79;59.12;96812.03;6268522;22;20677;-66
2021/12/24 15:29:13;;;;;;;46.33;26.63;;;;;;;3.79;61.44;96812.84;6269047;22;20226;-67
2021/12/24 15:31:42;;;;;;;64.73;35.30;;;;;;;3.86;60.17;96824.66;6268902;22;20553;-67
2021/12/24 15:34:09;;;;;;;71.00;37.10;;;;;;;3.76;61.15;96832.56;6268496;22;20222;-67
2021/12/24 15:36:37;;;;;;;74.53;40.80;;;;;;;3.63;61.45;96832.00;6268853;22;20194;-68
2021/12/24 15:39:06;;;;;;;79.40;39.90;;;;;;;3.50;61.54;96838.28;6269288;22;20196;-66
2021/12/24 15:41:34;;;;;;;75.63;39.90;;;;;;;3.34;61.82;96825.84;6268961;22;20307;-66
2021/12/24 15:44:01;;;;;;;78.50;43.83;;;;;;;3.26;62.71;96838.78;6241497;22;20176;-67
2021/12/24 15:46:28;;;;;;;70.77;38.47;;;;;;;3.26;62.67;96841.34;6268928;22;20584;-66
2021/12/24 15:48:56;;;;;;;64.70;37.53;;;;;;;3.12;63.44;96839.06;6269847;22;20214;-66
2021/12/24 15:51:23;;;;;;;68.97;40.10;;;;;;;3.06;63.55;96839.19;6269542;22;20193;-66
2021/12/24 15:53:50;;;;;;;69.57;40.87;;;;;;;3.00;64.12;96843.56;6269013;22;20218;-66
2021/12/24 15:56:18;;;;;;;63.73;37.03;;;;;;;3.00;64.09;96838.47;6268813;22;20231;-67
2021/12/24 15:58:45;;;;;;;58.90;33.00;;;;;;;2.92;63.85;96836.06;6268789;22;20620;-67
2021/12/24 16:01:12;;;;;;;85.90;47.07;;;;;;;2.80;65.09;96836.31;6269253;22;20235;-68
2021/12/24 16:03:40;;;;;;;81.33;43.53;;;;;;;2.71;64.74;96836.47;6268704;22;20524;-68
2021/12/24 16:06:07;;;;;;;71.60;40.87;;;;;;;2.78;64.79;96839.75;6268885;22;20204;-68
2021/12/24 16:08:34;;;;;;;71.87;39.53;;;;;;;2.72;65.13;96833.00;6269254;22;20184;-67
2021/12/24 16:11:03;;;;;;;88.53;40.87;;;;;;;2.62;65.88;96844.28;6241412;22;20189;-68
2021/12/24 16:13:31;;;;;;;83.93;39.37;;;;;;;2.49;66.43;96847.94;6268816;22;20164;-66
2021/12/24 16:15:58;;;;;;;69.00;39.90;;;;;;;2.51;67.18;96856.44;6268625;22;20575;-66
2021/12/24 16:18:25;;;;;;;93.43;45.07;;;;;;;2.53;68.07;96856.41;6241926;22;20613;-66
2021/12/24 16:20:54;;;;;;;82.70;40.93;;;;;;;2.55;67.67;96860.63;6268848;22;20168;-67
2021/12/24 16:23:22;;;;;;;68.80;36.40;;;;;;;2.47;67.53;96857.34;6268819;22;20194;-67
2021/12/24 16:25:50;;;;;;;57.20;33.60;;;;;;;2.43;67.25;96856.53;6269105;22;20175;-66
2021/12/24 16:28:17;;;;;;;59.33;32.40;;;;;;;2.40;67.89;96855.75;6241896;22;21175;-69
2021/12/24 16:30:44;;;;;;;73.27;39.30;;;;;;;2.49;67.46;96866.66;6268316;22;20196;-69
2021/12/24 16:33:14;;;;;;;62.73;35.13;;;;;;;2.37;67.10;96861.75;6269124;22;20167;-67
2021/12/24 16:35:49;;;;;;;70.00;35.43;;;;;;;2.32;67.46;96862.72;6268860;22;20492;-67
2021/12/24 16:38:16;;;;;;;74.87;37.53;;;;;;;2.27;68.68;96859.38;6268425;22;20218;-69
2021/12/24 16:40:43;;;;;;;64.03;35.47;;;;;;;2.20;68.60;96852.69;6268216;22;20171;-67
2021/12/24 16:43:12;;;;;;;55.00;31.43;;;;;;;2.13;68.51;96851.09;6268434;22;20204;-68
2021/12/24 16:45:41;;;;;;;54.83;30.03;;;;;;;2.04;68.84;96857.19;6268887;22;20156;-70
2021/12/24 16:48:12;;;;;;;45.77;28.03;;;;;;;1.94;69.89;96855.66;6268502;22;20247;-68
2021/12/24 16:50:43;;;;;;;43.83;27.03;;;;;;;1.89;69.17;96856.59;6268472;22;20192;-67
2021/12/24 16:53:11;;;;;;;52.40;27.13;;;;;;;1.97;69.21;96855.59;6241807;22;20214;-68
2021/12/24 16:55:39;;;;;;;52.57;28.10;;;;;;;2.05;69.15;96865.69;6241650;22;20172;-68
2021/12/24 16:58:07;;;;;;;67.97;31.83;;;;;;;2.11;69.12;96868.16;6268829;22;20165;-68
2021/12/24 17:00:38;;;;;;;71.73;36.47;;;;;;;2.12;68.66;96859.63;6241685;22;20179;-67
2021/12/24 17:03:06;;;;;;;69.97;37.50;;;;;;;2.15;69.13;96851.91;6268732;22;20187;-67
2021/12/24 17:05:33;;;;;;;62.60;36.37;;;;;;;2.17;69.32;96863.81;6268808;22;20184;-65
2021/12/24 17:08:04;;;;;;;70.57;35.27;;;;;;;2.06;69.14;96863.09;6269009;22;20168;-66
2021/12/24 17:10:32;;;;;;;65.77;35.40;;;;;;;2.03;68.87;96859.78;6268433;22;20196;-68
2021/12/24 17:12:59;;;;;;;63.30;36.90;;;;;;;1.81;69.23;96833.75;6242036;22;20176;-66
2021/12/24 17:15:32;;;;;;;63.33;35.87;;;;;;;1.97;69.62;96849.66;6268754;22;20214;-68
2021/12/24 17:17:59;;;;;;;64.93;37.23;;;;;;;1.86;69.67;96854.91;6241698;22;20196;-68
2021/12/24 17:20:27;;;;;;;104.23;48.80;;;;;;;1.78;70.63;96843.13;6242231;22;20248;-68
2021/12/24 17:22:54;;;;;;;100.27;53.33;;;;;;;1.61;71.05;96820.41;6268848;22;20493;-68
2021/12/24 17:25:22;;;;;;;109.73;55.87;;;;;;;1.81;69.66;96849.06;6268478;22;20168;-66
2021/12/24 17:27:49;;;;;;;109.33;55.67;;;;;;;1.79;70.48;96848.25;6268727;22;20251;-67
2021/12/24 17:30:19;;;;;;;101.23;54.80;;;;;;;1.80;71.13;96852.47;6269330;22;20197;-67
2021/12/24 17:32:46;;;;;;;111.03;55.83;;;;;;;1.74;70.53;96847.44;6270697;22;20628;-67
2021/12/24 17:35:14;;;;;;;104.43;52.17;;;;;;;1.81;71.43;96854.16;6270676;22;20293;-66
2021/12/24 17:37:42;;;;;;;101.33;49.93;;;;;;;1.81;71.45;96853.31;6270491;22;20165;-67
2021/12/24 17:40:11;;;;;;;120.60;55.40;;;;;;;1.84;70.32;96860.91;6270678;22;20176;-66
2021/12/24 17:42:38;;;;;;;112.03;53.67;;;;;;;1.78;72.37;96853.34;6270300;22;20227;-68
2021/12/24 17:45:08;;;;;;;101.50;50.23;;;;;;;1.60;72.01;96849.34;6243667;22;20663;-70
2021/12/24 17:47:36;;;;;;;104.63;50.40;;;;;;;1.64;71.76;96848.44;6270777;22;20255;-67
2021/12/24 17:50:05;;;;;;;99.30;49.57;;;;;;;1.61;72.78;96851.03;6270399;22;20192;-67
2021/12/24 17:52:32;;;;;;;93.83;49.63;;;;;;;1.57;73.17;96855.34;6270899;22;20165;-66
2021/12/24 17:54:59;;;;;;;98.77;47.67;;;;;;;1.55;73.64;96867.28;6244071;22;20165;-66
2021/12/24 17:57:26;;;;;;;83.47;46.47;;;;;;;1.55;74.03;96876.63;6270445;22;20173;-66
2021/12/24 17:59:53;;;;;;;79.90;42.23;;;;;;;1.45;74.84;96875.91;6270630;22;20210;-66
2021/12/24 18:02:20;;;;;;;65.83;37.07;;;;;;;1.42;75.14;96870.84;6270443;22;20188;-70
2021/12/24 18:04:47;;;;;;;75.60;40.73;;;;;;;1.33;75.35;96875.22;6270721;22;20169;-71
2021/12/24 18:07:15;;;;;;;69.27;36.60;;;;;;;1.32;74.33;96874.38;6270254;22;20175;-69
2021/12/24 18:09:42;;;;;;;67.30;36.93;;;;;;;1.31;74.94;96862.50;6270240;22;20255;-68
2021/12/24 18:12:11;;;;;;;75.07;40.67;;;;;;;1.28;75.06;96859.97;6270018;22;20195;-67
2021/12/24 18:14:39;;;;;;;63.67;36.17;;;;;;;1.16;74.73;96874.56;6269960;22;20168;-67
2021/12/24 18:17:07;;;;;;;57.83;32.20;;;;;;;1.14;74.78;96864.41;6269977;22;20161;-69
2021/12/24 18:19:35;;;;;;;40.73;23.97;;;;;;;1.07;76.02;96860.22;6270191;22;20612;-67
2021/12/24 18:22:03;;;;;;;33.80;19.27;;;;;;;1.16;75.84;96854.19;6270187;22;20248;-67
2021/12/24 18:24:30;;;;;;;31.00;16.70;;;;;;;1.15;76.14;96855.06;6270401;22;20243;-67
2021/12/24 18:26:57;;;;;;;30.93;18.43;;;;;;;1.17;75.85;96854.19;6270125;22;20182;-67
2021/12/24 18:29:24;;;;;;;41.37;24.67;;;;;;;1.17;75.56;96843.97;6243206;22;20173;-70
2021/12/24 18:31:51;;;;;;;35.80;20.87;;;;;;;1.33;74.60;96860.78;6269671;22;20528;-70
2021/12/24 18:34:21;;;;;;;43.30;23.67;;;;;;;1.29;74.55;96868.47;6270090;22;20195;-67
2021/12/24 18:36:48;;;;;;;45.27;24.73;;;;;;;1.22;75.18;96851.56;6270008;22;20193;-68
2021/12/24 18:39:15;;;;;;;45.90;25.70;;;;;;;1.27;75.68;96860.00;6270283;22;20168;-72
2021/12/24 18:41:43;;;;;;;46.00;24.77;;;;;;;1.29;74.62;96861.69;6269940;22;20200;-72
2021/12/24 18:44:10;;;;;;;47.33;24.63;;;;;;;1.21;74.77;96863.47;6270118;22;20164;-67
2021/12/24 18:46:37;;;;;;;46.93;23.60;;;;;;;1.24;75.60;96863.44;6270067;22;20636;-67
2021/12/24 18:49:05;;;;;;;43.53;23.77;;;;;;;1.11;74.97;96853.41;6270119;22;20168;-71
2021/12/24 18:51:33;;;;;;;40.60;25.20;;;;;;;1.23;74.94;96877.06;6270044;22;20241;-72
2021/12/24 18:54:00;;;;;;;52.00;28.57;;;;;;;1.20;75.25;96871.97;6269953;22;20160;-70
2021/12/24 18:56:27;;;;;;;51.03;26.37;;;;;;;1.16;75.37;96870.34;6270229;22;20570;-70
2021/12/24 18:58:54;;;;;;;44.73;24.10;;;;;;;1.23;76.04;96874.50;6270159;22;20245;-69
2021/12/24 19:01:22;;;;;;;43.00;23.97;;;;;;;1.21;74.83;96877.94;6269970;22;20214;-70
2021/12/24 19:03:50;;;;;;;56.93;30.43;;;;;;;1.20;76.03;96883.88;6269929;22;20164;-72
2021/12/24 19:06:19;;;;;;;61.97;31.63;;;;;;;1.26;74.60;96869.34;6269680;22;20688;-68
2021/12/24 19:08:48;;;;;;;59.97;29.97;;;;;;;1.29;75.31;96869.34;6269831;22;20210;-70
2021/12/24 19:11:16;;;;;;;51.20;25.40;;;;;;;1.24;75.69;96880.44;6269702;22;20196;-69
2021/12/24 19:13:43;;;;;;;44.83;24.43;;;;;;;1.24;74.57;96872.78;6269886;22;20199;-70
2021/12/24 19:16:10;;;;;;;42.37;22.30;;;;;;;1.13;75.86;96870.38;6242746;22;20173;-69
2021/12/24 19:18:41;;;;;;;37.10;21.37;;;;;;;1.13;75.84;96872.09;6269872;22;20172;-69
2021/12/24 19:21:09;;;;;;;36.30;21.50;;;;;;;1.13;76.19;96882.28;6269922;22;20161;-71
2021/12/24 19:23:36;;;;;;;33.30;19.10;;;;;;;1.13;75.34;96893.34;6269511;22;20555;-68
2021/12/24 19:26:05;;;;;;;34.57;19.47;;;;;;;1.05;75.32;96872.16;6269704;22;20165;-70
2021/12/24 19:28:32;;;;;;;39.67;21.83;;;;;;;1.12;76.02;96893.31;6269533;22;20240;-67
2021/12/24 19:31:00;;;;;;;48.07;27.20;;;;;;;1.10;75.78;96903.56;6270176;22;20279;-70
2021/12/24 19:33:29;;;;;;;47.93;27.63;;;;;;;1.09;75.74;96896.78;6243769;22;20168;-71
2021/12/24 19:35:57;;;;;;;46.87;29.03;;;;;;;1.17;75.54;96896.69;6272387;22;20195;-69
2021/12/24 19:38:24;;;;;;;50.93;29.60;;;;;;;1.14;76.15;96886.50;6277353;22;20176;-68
2021/12/24 19:40:51;;;;;;;62.87;35.03;;;;;;;1.16;76.01;96888.19;6279786;22;20160;-71
2021/12/24 19:43:18;;;;;;;48.57;27.63;;;;;;;1.01;75.68;96884.97;6281291;22;20725;-72
2021/12/24 19:45:45;;;;;;;50.23;26.80;;;;;;;1.00;76.09;96891.78;6279529;22;20165;-72
2021/12/24 19:48:12;;;;;;;45.60;26.43;;;;;;;0.82;75.66;96890.25;6271429;22;20218;-69
2021/12/24 19:50:40;;;;;;;41.47;23.27;;;;;;;0.75;76.85;96895.44;6270749;22;20279;-73
2021/12/24 19:53:07;;;;;;;39.30;23.73;;;;;;;0.73;76.65;96902.25;6270230;22;20234;-71
2021/12/24 19:55:34;;;;;;;45.00;24.57;;;;;;;0.69;77.20;96880.19;6270464;22;20169;-68
2021/12/24 19:58:05;;;;;;;49.90;27.40;;;;;;;0.74;77.12;96886.94;6269880;22;20227;-69
2021/12/24 20:00:32;;;;;;;47.60;26.77;;;;;;;0.76;76.81;96881.84;6269673;22;20160;-70
2021/12/24 20:03:00;;;;;;;47.10;25.00;;;;;;;0.76;76.67;96877.56;6269428;22;20169;-71
2021/12/24 20:05:28;;;;;;;49.93;26.90;;;;;;;0.88;76.43;96878.31;6269561;22;20251;-68
2021/12/24 20:07:55;;;;;;;41.57;25.47;;;;;;;0.89;76.55;96869.81;6242712;22;20243;-71
2021/12/24 20:10:23;;;;;;;44.57;24.20;;;;;;;0.90;77.23;96866.38;6269570;22;20192;-72
2021/12/24 20:12:50;;;;;;;40.17;22.33;;;;;;;0.80;77.17;96856.28;6269170;22;20172;-69
2021/12/24 20:15:20;;;;;;;41.43;23.00;;;;;;;0.75;77.16;96847.88;6269098;22;20164;-68
2021/12/24 20:17:49;;;;;;;35.57;22.63;;;;;;;0.69;77.97;96854.72;6269207;22;20160;-69
2021/12/24 20:20:56;;;;;;;36.87;22.90;;;;;;;0.80;77.22;96873.31;6269293;22;20160;-68
2021/12/24 20:24:16;;;;;;;46.07;27.70;;;;;;;0.88;76.51;96870.66;6268121;22;20164;-71
2021/12/24 20:27:57;;;;;;;42.87;25.60;;;;;;;0.93;77.27;96872.28;6268696;22;20251;-70
2021/12/24 20:31:37;;;;;;;42.87;23.80;;;;;;;0.64;77.89;96871.75;6268852;22;20208;-72
2021/12/24 20:35:18;;;;;;;47.07;25.90;;;;;;;0.55;78.49;96875.25;6268767;22;20191;-70
2021/12/24 20:38:59;;;;;;;47.77;25.10;;;;;;;0.58;78.11;96864.16;6268752;22;20641;-69
2021/12/24 20:42:40;;;;;;;49.90;27.63;;;;;;;0.70;78.42;96872.53;6268526;22;20687;-69
2021/12/24 20:46:21;;;;;;;47.60;26.23;;;;;;;0.78;78.03;96872.47;6268624;22;20729;-71
2021/12/24 20:50:01;;;;;;;50.73;28.03;;;;;;;0.75;77.03;96870.78;6268609;22;20701;-70
2021/12/24 20:53:42;;;;;;;49.33;28.20;;;;;;;0.76;77.18;96871.66;6268808;22;20667;-70
2021/12/24 20:57:22;;;;;;;56.10;32.17;;;;;;;0.81;77.61;96875.81;6268511;22;20176;-67
2021/12/24 21:01:03;;;;;;;44.17;26.60;;;;;;;0.76;76.63;96876.75;6268560;22;20300;-69
2021/12/24 21:04:43;;;;;;;53.00;29.23;;;;;;;0.46;78.79;96889.75;6269122;22;20207;-71
2021/12/24 21:08:24;;;;;;;48.67;26.43;;;;;;;0.36;78.84;96885.59;6270823;22;20183;-71
2021/12/24 21:12:04;;;;;;;44.93;25.20;;;;;;;0.35;79.20;96884.75;6270595;22;20659;-70
2021/12/24 21:15:45;;;;;;;42.93;24.80;;;;;;;0.37;80.19;96889.84;6270596;22;20195;-69
2021/12/24 21:19:26;;;;;;;44.13;23.07;;;;;;;0.35;80.06;96891.56;6270607;22;20175;-71
2021/12/24 21:23:06;;;;;;;41.17;24.17;;;;;;;0.34;79.41;96882.22;6270680;22;20179;-69
2021/12/24 21:26:47;;;;;;;47.13;26.37;;;;;;;0.37;79.49;96882.22;6250680;22;20176;-67
2021/12/24 21:30:28;;;;;;;53.07;28.33;;;;;;;0.43;79.12;96879.63;6270470;22;20186;-67
2021/12/24 21:34:08;;;;;;;53.77;27.93;;;;;;;0.45;78.97;96868.56;6270674;22;20182;-70
2021/12/24 21:37:49;;;;;;;53.10;28.60;;;;;;;0.36;79.36;96855.91;6270529;22;20241;-69
2021/12/24 21:41:29;;;;;;;66.47;35.73;;;;;;;0.40;78.57;96874.53;6270472;22;20592;-70
2021/12/24 21:45:10;;;;;;;83.07;39.90;;;;;;;0.30;79.53;96865.28;6270544;22;20263;-70
2021/12/24 21:48:51;;;;;;;64.63;32.80;;;;;;;0.32;78.48;96855.94;6270337;22;20176;-70
2021/12/24 21:52:31;;;;;;;64.53;30.33;;;;;;;0.38;78.81;96864.38;6270065;22;20546;-72
2021/12/24 21:55:59;;;;;;;58.43;30.50;;;;;;;0.48;78.13;96875.31;6270507;22;20190;-70
2021/12/24 21:58:26;;;;;;;73.17;35.00;;;;;;;0.37;78.13;96875.41;6243660;22;20578;-67
2021/12/24 22:00:54;;;;;;;60.53;29.17;;;;;;;0.19;78.97;96867.06;6270538;22;20161;-68
2021/12/24 22:08:24;;;;;;;38.70;23.33;;;;;;;0.11;80.86;96862.06;6270834;22;20168;-68
2021/12/24 22:10:59;;;;;;;38.73;21.57;;;;;;;0.14;80.10;96851.00;6270318;22;20194;-70
2021/12/24 22:13:28;;;;;;;36.50;20.63;;;;;;;0.14;80.70;96849.31;6270545;22;20222;-70
2021/12/24 22:16:00;;;;;;;28.57;18.63;;;;;;;0.19;79.80;96846.72;6270261;22;20234;-68
2021/12/24 22:18:32;;;;;;;31.07;18.73;;;;;;;0.33;80.84;96848.28;6270617;22;20199;-67
2021/12/24 22:21:01;;;;;;;31.73;19.03;;;;;;;0.36;80.63;96848.25;6270735;22;20168;-68
2021/12/24 22:23:30;;;;;;;37.47;19.47;;;;;;;0.49;79.57;96854.09;6270611;22;20164;-71
2021/12/24 22:25:57;;;;;;;29.63;17.50;;;;;;;0.57;79.13;96849.75;6270402;22;20169;-67
2021/12/24 22:28:24;;;;;;;33.97;19.20;;;;;;;0.59;79.41;96840.41;6270366;22;20222;-70
2021/12/24 22:30:52;;;;;;;32.77;18.00;;;;;;;0.66;78.87;96847.13;6243380;22;20196;-67
2021/12/24 22:33:19;;;;;;;30.03;18.63;;;;;;;0.69;78.72;96835.19;6270289;22;20172;-68
2021/12/24 22:35:47;;;;;;;33.93;19.47;;;;;;;0.70;78.77;96844.50;6270094;22;20168;-69
2021/12/24 22:38:14;;;;;;;28.80;19.03;;;;;;;0.67;78.85;96831.81;6270286;22;20176;-68
2021/12/24 22:40:44;;;;;;;36.50;20.10;;;;;;;0.62;78.57;96828.47;6270390;22;20161;-69
2021/12/24 22:43:12;;;;;;;33.40;19.30;;;;;;;0.70;78.64;96836.03;6269993;22;20663;-70
2021/12/24 22:45:41;;;;;;;32.33;19.87;;;;;;;0.78;79.64;96829.16;6270118;22;20168;-68
2021/12/24 22:48:11;;;;;;;35.73;20.00;;;;;;;0.78;78.72;96832.53;6243247;22;20218;-69
2021/12/24 22:50:40;;;;;;;35.80;20.07;;;;;;;0.76;79.50;96826.59;6269838;22;20184;-69
2021/12/24 22:53:07;;;;;;;37.07;20.97;;;;;;;0.76;79.28;96818.13;6270181;22;20168;-69
2021/12/24 22:55:35;;;;;;;34.87;21.53;;;;;;;0.76;79.30;96802.84;6270032;22;20564;-66
2021/12/24 22:58:09;;;;;;;37.30;23.77;;;;;;;0.76;78.76;96796.03;6270168;22;20160;-69
2021/12/24 23:00:48;;;;;;;47.50;26.57;;;;;;;0.80;78.05;96820.59;6218679;22;20651;-69
2021/12/24 23:03:20;;;;;;;54.67;28.07;;;;;;;0.78;77.91;96816.41;6269899;22;20169;-68
2021/12/24 23:05:49;;;;;;;54.23;28.20;;;;;;;0.77;77.75;96807.06;6242873;22;20160;-69
2021/12/24 23:08:17;;;;;;;55.60;28.23;;;;;;;0.64;78.41;96805.50;6270163;22;20191;-69
2021/12/24 23:10:46;;;;;;;59.03;28.77;;;;;;;0.64;78.92;96816.56;6270088;22;20184;-70
2021/12/24 23:13:13;;;;;;;45.57;27.57;;;;;;;0.66;78.94;96814.81;6270145;22;20165;-69
2021/12/24 23:15:42;;;;;;;47.87;25.57;;;;;;;0.49;78.15;96820.97;6269798;22;20620;-70
2021/12/24 23:18:13;;;;;;;40.17;23.63;;;;;;;0.47;78.12;96813.34;6270010;22;20171;-68
2021/12/24 23:20:41;;;;;;;44.97;25.23;;;;;;;0.35;80.19;96816.00;6269880;22;20520;-68
2021/12/24 23:23:09;;;;;;;40.67;24.47;;;;;;;0.30;80.65;96820.31;6269642;22;20177;-69
2021/12/24 23:25:36;;;;;;;42.77;25.50;;;;;;;0.20;80.88;96823.81;6269713;22;20168;-70
2021/12/24 23:28:04;;;;;;;45.37;26.47;;;;;;;0.16;80.46;96828.94;6269214;22;20168;-68
2021/12/24 23:30:31;;;;;;;50.50;26.13;;;;;;;0.19;81.09;96816.16;6269775;22;20249;-70
2021/12/24 23:32:58;;;;;;;50.33;26.77;;;;;;;0.25;80.90;96818.69;6269622;22;20168;-69
2021/12/24 23:35:26;;;;;;;57.33;28.90;;;;;;;0.34;80.70;96819.41;6269510;22;20168;-69
2021/12/24 23:37:53;;;;;;;48.30;26.77;;;;;;;0.39;80.09;96809.19;6269659;22;20214;-69
2021/12/24 23:40:20;;;;;;;51.27;27.43;;;;;;;0.47;79.46;96808.25;6269715;22;20161;-70